Latest Weather Observations for Puckapunyal West (Defence)

IDV60801

Issued at 11:22 pm EDT Monday 25 January 2021 (issued every 10 minutes, with the page automatically refreshed every 10 minutes)

About weather observations | Map of weather stations | Latest weather observations for VIC | Other Formats
Station Details ID: 088166 Name: PUCKAPUNYAL WEST (DEFENCE) Lat: -37.02 Lon: 144.85 Height: 293.0 m
Data from the previous 72 hours. | See also: Recent months at Puckapunyal West (Defence)
Date/Time
EDT
Temp
°C
App
Temp
°C
Dew
Point
°C
Rel
Hum
%
Delta-T
°C
Wind Press
QNH
hPa
Press
MSL
hPa
Rain since
9am
mm
Dir  Spd
km/h
Gust
km/h
Spd
kts
Gust
kts
25/11:00pm 22.0 18.7 14.1 61 4.7 S 24 37 13 20 - - 0.0
25/10:30pm 22.3 20.0 14.2 60 4.8 S 19 33 10 18 - - 0.0
25/10:00pm 23.2 19.0 13.4 54 5.8 S 28 41 15 22 - - 0.0
25/09:30pm 23.9 19.3 12.2 48 6.8 S 28 43 15 23 - - 0.0
25/09:00pm 24.3 21.8 12.3 47 6.9 SSE 17 30 9 16 - - 0.0
25/08:30pm 24.4 21.4 12.4 47 7.0 SSE 20 28 11 15 - - 0.0
25/08:00pm 25.3 22.3 12.5 45 7.5 SSE 20 28 11 15 - - 0.0
25/07:30pm 25.6 22.2 12.4 43 7.7 SSE 22 32 12 17 - - 0.0
25/07:00pm 26.1 21.7 11.8 41 8.3 SSE 26 39 14 21 - - 0.0
25/06:46pm 29.3 26.5 9.9 30 11.1 SSW 15 37 8 20 - - 0.0
25/06:30pm 34.4 31.9 8.2 20 14.9 WSW 11 19 6 10 - - 0.0
25/06:00pm 35.5 32.6 6.7 17 16.1 W 11 30 6 16 - - 0.0
25/05:30pm 36.5 30.6 5.7 15 17.0 NNW 26 43 14 23 - - 0.0
25/05:00pm 36.2 29.5 5.5 15 16.9 NNW 30 46 16 25 - - 0.0
25/04:41pm 36.4 29.3 5.6 15 17.0 NNW 32 52 17 28 - - 0.0
25/04:30pm 36.5 29.3 5.7 15 17.0 NW 33 48 18 26 - - 0.0
25/04:13pm 37.7 30.4 5.6 14 17.8 NNW 33 54 18 29 - - 0.0
25/04:00pm 37.0 29.5 6.1 15 17.2 NW 35 50 19 27 - - 0.0
25/03:30pm 36.9 29.5 5.0 14 17.5 NW 33 52 18 28 - - 0.0
25/03:07pm 38.0 31.6 6.9 15 17.6 NW 30 50 16 27 - - 0.0
25/03:00pm 36.3 29.0 5.5 15 16.9 NW 33 50 18 27 - - 0.0
25/02:38pm 37.3 30.9 5.3 14 17.6 NW 28 50 15 27 - - 0.0
25/02:30pm 38.3 32.1 6.1 14 18.0 NNW 28 48 15 26 - - 0.0
25/02:27pm 36.8 29.6 4.9 14 17.4 NNW 32 54 17 29 - - 0.0
25/02:00pm 37.2 29.1 5.3 14 17.6 NW 37 61 20 33 - - 0.0
25/01:34pm 37.2 30.4 5.3 14 17.6 NW 30 52 16 28 - - 0.0
25/01:30pm 37.4 31.0 5.4 14 17.7 NW 28 39 15 21 - - 0.0
25/01:00pm 36.9 30.1 5.0 14 17.5 NW 30 57 16 31 - - 0.0
25/12:56pm 38.4 32.0 5.1 13 18.4 NW 28 48 15 26 - - 0.0
25/12:30pm 36.8 29.8 5.9 15 17.1 NW 32 48 17 26 - - 0.0
25/12:13pm 36.6 30.5 6.7 16 16.8 NNW 28 56 15 30 - - 0.0
25/12:00pm 37.6 32.6 6.6 15 17.4 NNW 22 35 12 19 - - 0.0
25/11:30am 35.7 31.0 6.0 16 16.4 NNW 20 35 11 19 - - 0.0
25/11:00am 33.7 29.4 6.9 19 14.9 NNW 19 32 10 17 - - 0.0
25/10:30am 32.6 29.1 7.4 21 14.0 NNE 15 22 8 12 - - 0.0
25/10:00am 31.1 27.9 6.9 22 13.2 NNE 13 20 7 11 - - 0.0
25/09:30am 29.2 26.5 7.2 25 12.0 NNE 11 19 6 10 - - 0.0
25/09:00am 27.8 25.4 7.1 27 11.2 NNE 9 13 5 7 - - 0.0
25/08:30am 25.5 24.2 7.6 32 9.6 NNW 4 7 2 4 - - 0.0
25/08:00am 24.9 22.9 7.1 32 9.4 NNW 7 9 4 5 - - 0.0
25/07:30am 24.1 23.0 6.8 33 9.1 NNE 2 4 1 2 - - 0.0
25/07:00am 24.5 23.7 6.7 32 9.4 CALM 0 4 0 2 - - 0.0
25/06:30am 24.0 23.4 7.2 34 8.9 CALM 0 0 0 0 - - 0.0
25/06:00am 24.5 23.1 7.2 33 9.2 S 4 7 2 4 - - 0.0
25/05:30am 24.9 24.1 6.6 31 9.6 CALM 0 4 0 2 - - 0.0
25/05:00am 25.2 24.4 6.4 30 9.9 CALM 0 2 0 1 - - 0.0
25/04:30am 26.5 24.4 6.5 28 10.6 NNE 7 11 4 6 - - 0.0
25/04:00am 25.2 24.4 6.4 30 9.9 CALM 0 0 0 0 - - 0.0
25/03:30am 26.1 24.5 6.2 28 10.5 N 4 6 2 3 - - 0.0
25/03:00am 26.6 24.8 5.5 26 11.0 NNW 4 7 2 4 - - 0.0
25/02:30am 25.7 24.6 5.3 27 10.5 CALM 0 7 0 4 - - 0.0
25/02:00am 25.7 24.6 5.3 27 10.5 CALM 0 0 0 0 - - 0.0
25/01:30am 25.0 23.6 5.7 29 10.0 SW 2 6 1 3 - - 0.0
25/01:00am 24.8 23.9 6.1 30 9.7 CALM 0 0 0 0 - - 0.0
25/12:30am 25.8 24.9 5.9 28 10.4 CALM 0 0 0 0 - - 0.0
25/12:00am 25.3 24.5 6.5 30 9.9 CALM 0 2 0 1 - - 0.0
 
Date/Time
EDT
Temp
°C
App
Temp
°C
Dew
Point
°C
Rel
Hum
%
Delta-T
°C
Wind Press
QNH
hPa
Press
MSL
hPa
Rain since
9am
mm
Dir  Spd
km/h
Gust
km/h
Spd
kts
Gust
kts
24/11:30pm 25.9 25.1 6.5 29 10.2 CALM 0 0 0 0 - - 0.0
24/11:00pm 26.2 25.5 6.8 29 10.3 CALM 0 0 0 0 - - 0.0
24/10:30pm 27.0 26.3 6.9 28 10.8 CALM 0 2 0 1 - - 0.0
24/10:00pm 26.5 25.3 6.5 28 10.6 SSW 2 6 1 3 - - 0.0
24/09:30pm 28.1 27.2 6.2 25 11.7 CALM 0 0 0 0 - - 0.0
24/09:00pm 29.9 28.1 5.2 21 13.1 ENE 4 7 2 4 - - 0.0
24/08:30pm 32.7 30.2 4.5 17 15.0 NE 7 9 4 5 - - 0.0
24/08:00pm 34.3 31.5 3.0 14 16.4 NNE 7 11 4 6 - - 0.0
24/07:30pm 36.0 33.4 3.3 13 17.3 NNE 6 11 3 6 - - 0.0
24/07:00pm 36.3 33.4 2.4 12 17.8 N 7 13 4 7 - - 0.0
24/06:30pm 36.6 33.1 3.7 13 17.6 N 11 20 6 11 - - 0.0
24/06:00pm 37.7 34.2 3.4 12 18.4 NW 11 19 6 10 - - 0.0
24/05:30pm 37.1 34.6 1.8 11 18.4 NNW 4 9 2 5 - - 0.0
24/05:00pm 37.0 33.6 1.7 11 18.4 N 9 17 5 9 - - 0.0
24/04:30pm 36.7 33.1 2.7 12 17.9 N 11 20 6 11 - - 0.0
24/04:00pm 36.9 34.0 2.8 12 18.0 NNW 7 19 4 10 - - 0.0
24/03:30pm 36.3 33.0 2.4 12 17.8 WNW 9 17 5 9 - - 0.0
24/03:00pm 37.3 34.3 4.3 13 17.9 NNW 9 17 5 9 - - 0.0
24/02:30pm 37.0 33.8 5.1 14 17.5 N 11 19 6 10 - - 0.0
24/02:00pm 38.5 35.9 6.3 14 18.1 NW 9 22 5 12 - - 0.0
24/01:30pm 36.4 33.3 3.6 13 17.5 N 9 22 5 12 - - 0.0
24/01:00pm 35.8 33.2 6.1 16 16.4 N 9 20 5 11 - - 0.0
24/12:30pm 34.7 32.1 7.7 19 15.2 NE 11 17 6 9 - - 0.0
24/12:00pm 33.8 32.3 8.4 21 14.4 N 6 15 3 8 - - 0.0
24/11:30am 33.3 31.3 8.7 22 14.0 N 9 13 5 7 - - 0.0
24/11:00am 32.1 30.2 9.0 24 13.1 NNE 9 15 5 8 - - 0.0
24/10:30am 31.3 30.0 10.1 27 12.2 NE 7 13 4 7 - - 0.0
24/10:00am 29.7 28.8 10.8 31 10.9 NNE 6 11 3 6 - - 0.0
24/09:30am 29.7 28.9 11.7 33 10.6 ENE 7 13 4 7 - - 0.0
24/09:00am 28.3 27.6 11.4 35 9.8 ESE 6 9 3 5 - - 0.0
24/08:30am 25.9 25.6 11.6 40 8.2 SE 4 6 2 3 - - 0.0
24/08:00am 22.9 22.0 10.7 46 6.8 SSE 6 7 3 4 - - 0.0
24/07:30am 21.7 21.4 10.2 48 6.3 SE 2 6 1 3 - - 0.0
24/07:00am 19.8 18.7 10.0 53 5.3 S 6 7 3 4 - - 0.0
24/06:30am 18.9 17.2 9.7 55 4.9 S 9 9 5 5 - - 0.0
24/06:00am 18.9 17.2 9.7 55 4.9 SSE 9 9 5 5 - - 0.0
24/05:30am 19.1 17.9 9.6 54 5.1 S 6 6 3 3 - - 0.0
24/05:00am 19.4 18.2 9.6 53 5.3 S 6 7 3 4 - - 0.0
24/04:30am 20.5 18.8 9.7 50 5.9 S 9 11 5 6 - - 0.0
24/04:00am 19.6 17.5 9.8 53 5.3 S 11 15 6 8 - - 0.0
24/03:30am 19.0 17.3 10.0 56 4.9 S 9 11 5 6 - - 0.0
24/03:00am 18.8 17.5 10.1 57 4.7 S 7 9 4 5 - - 0.0
24/02:30am 20.3 19.4 10.7 54 5.3 SSE 6 7 3 4 - - 0.0
24/02:00am 20.6 18.9 11.2 55 5.2 SSE 11 15 6 8 - - 0.0
24/01:30am 20.0 17.6 10.1 53 5.4 S 13 19 7 10 - - 0.0
24/01:00am 20.1 17.4 10.2 53 5.4 SSE 15 20 8 11 - - 0.0
24/12:30am 20.4 17.8 10.8 54 5.3 S 15 20 8 11 - - 0.0
24/12:00am 20.9 18.0 11.0 53 5.5 S 17 20 9 11 - - 0.0
 
Date/Time
EDT
Temp
°C
App
Temp
°C
Dew
Point
°C
Rel
Hum
%
Delta-T
°C
Wind Press
QNH
hPa
Press
MSL
hPa
Rain since
9am
mm
Dir  Spd
km/h
Gust
km/h
Spd
kts
Gust
kts
23/11:30pm 21.5 18.5 11.8 54 5.5 S 19 24 10 13 - - 0.0
23/11:00pm 22.4 19.7 12.9 55 5.5 S 19 28 10 15 - - 0.0
23/10:30pm 23.3 19.9 11.4 47 6.8 S 20 32 11 17 - - 0.0
23/10:00pm 24.1 20.9 11.4 45 7.2 SSW 19 24 10 13 - - 0.0
23/09:30pm 25.2 22.6 12.1 44 7.6 S 17 24 9 13 - - 0.0
23/09:00pm 26.2 23.8 12.6 43 8.0 S 17 24 9 13 - - 0.0
23/08:30pm 28.1 25.5 12.0 36 9.4 SSW 17 24 9 13 - - 0.0
23/08:00pm 32.8 30.5 4.6 17 15.0 WNW 6 7 3 4 - - 0.0
23/07:30pm 33.9 31.2 3.7 15 15.9 W 7 13 4 7 - - 0.0
23/07:00pm 34.6 32.2 4.2 15 16.2 WNW 6 9 3 5 - - 0.0
23/06:30pm 34.5 30.4 4.1 15 16.2 W 15 24 8 13 - - 0.0
23/06:00pm 34.9 32.0 4.4 15 16.4 W 9 19 5 10 - - 0.0
23/05:30pm 34.4 30.6 4.0 15 16.2 NW 13 26 7 14 - - 0.0
23/05:00pm 34.2 29.3 3.9 15 16.1 WNW 19 32 10 17 - - 0.0
23/04:30pm 34.6 29.3 3.2 14 16.5 W 20 33 11 18 - - 0.0
23/04:00pm 35.2 30.4 5.6 16 16.2 W 20 32 11 17 - - 0.0
23/03:30pm 34.5 30.3 5.9 17 15.7 WNW 17 26 9 14 - - 0.0
23/03:00pm 34.2 29.6 5.7 17 15.5 WNW 19 30 10 16 - - 0.0
23/02:30pm 34.4 31.0 7.5 19 15.1 NNW 15 26 8 14 - - 0.0
23/02:00pm 32.7 29.1 6.8 20 14.3 NW 15 30 8 16 - - 0.0
23/01:30pm 31.9 28.9 7.5 22 13.5 W 13 32 7 17 - - 0.0
23/01:00pm 31.4 26.9 7.1 22 13.4 WNW 20 30 11 16 - - 0.0
23/12:30pm 31.3 28.1 8.3 24 12.9 NW 15 24 8 13 - - 0.0
23/12:00pm 29.9 28.5 8.9 27 11.8 N 6 13 3 7 - - 0.0
23/11:30am 27.9 26.2 8.2 29 10.8 NE 7 11 4 6 - - 0.0
23/11:00am 26.2 24.6 8.2 32 9.8 ENE 6 9 3 5 - - 0.0
23/10:30am 24.5 22.7 9.3 38 8.4 SSE 9 13 5 7 - - 0.0
23/10:00am 23.1 22.0 10.5 45 7.0 SE 7 13 4 7 - - 0.0
23/09:30am 21.4 19.1 10.6 50 6.0 SSE 13 19 7 10 - - 0.0
23/09:00am 19.9 17.7 10.9 56 5.0 SSE 13 19 7 10 - - 0.0
23/08:30am 18.0 15.5 11.1 64 3.8 SSE 15 19 8 10 - - 0.0
23/08:00am 16.3 14.3 11.5 73 2.6 SSE 13 19 7 10 - - 0.0
23/07:30am 14.7 12.5 10.9 78 2.0 SE 13 19 7 10 - - 0.0
23/07:00am 13.5 11.0 11.2 86 1.2 SE 15 17 8 9 - - 0.0
23/06:30am 13.1 11.0 11.3 89 1.0 SE 13 17 7 9 - - 0.0
23/06:00am 13.4 11.0 11.3 87 1.1 SSE 15 19 8 10 - - 0.0
23/05:30am 13.6 10.9 11.7 88 1.0 S 17 28 9 15 - - 0.0
23/05:00am 13.9 11.3 12.1 89 1.0 SSE 17 24 9 13 - - 0.0
23/04:30am 13.9 11.8 12.3 90 0.9 SSE 15 22 8 12 - - 0.0
23/04:00am 14.0 11.5 12.4 90 0.9 S 17 24 9 13 - - 0.0
23/03:30am 14.0 11.5 12.4 90 0.9 SSE 17 26 9 14 - - 0.0
23/03:00am 14.3 11.9 12.7 90 0.9 S 17 24 9 13 - - 0.0
23/02:30am 14.3 11.9 12.5 89 1.0 S 17 24 9 13 - - 0.0
23/02:00am 14.5 10.8 12.7 89 1.0 S 24 35 13 19 - - 0.0
23/01:30am 14.5 10.3 12.4 87 1.2 S 26 39 14 21 - - 0.0
23/01:00am 14.6 10.8 12.3 86 1.3 SSE 24 35 13 19 - - 0.0
23/12:30am 16.0 12.1 12.2 78 2.1 S 24 33 13 18 - - 0.0
23/12:00am 16.3 13.2 12.3 77 2.2 SSE 20 26 11 14 - - 0.0
 
Date/Time
EDT
Temp
°C
App
Temp
°C
Dew
Point
°C
Rel
Hum
%
Delta-T
°C
Wind Press
QNH
hPa
Press
MSL
hPa
Rain since
9am
mm
Dir  Spd
km/h
Gust
km/h
Spd
kts
Gust
kts
22/11:30pm 16.4 13.4 12.0 75 2.4 SSE 19 24 10 13 - - 0.0

Other formats

Comma delimited format used in spreadsheet applications
http://www.bom.gov.au/fwo/IDV60801/IDV60801.94856.axf

JavaScript Object Notation format (JSON) in row-major order
http://www.bom.gov.au/fwo/IDV60801/IDV60801.94856.json

Data quality

Most of these data are generated automatically and are frequently updated. Quality checks on data are not normally performed. It is possible for incorrect values to appear. Refer to information at About Latest Weather Observations and please check the disclaimer before using these data.